sensor_id;sensor_type;location;lat;lon;timestamp;P1;durP1;ratioP1;P2;durP2;ratioP2
56830;SDS011;42713;42.676;23.352;2023-07-29T00:02:21;6.68;;;2.42;;
56830;SDS011;42713;42.676;23.352;2023-07-29T00:04:47;4.82;;;2.17;;
56830;SDS011;42713;42.676;23.352;2023-07-29T00:07:13;7.10;;;2.40;;
56830;SDS011;42713;42.676;23.352;2023-07-29T00:09:38;7.63;;;2.22;;
56830;SDS011;42713;42.676;23.352;2023-07-29T00:12:04;7.28;;;2.67;;
56830;SDS011;42713;42.676;23.352;2023-07-29T00:14:29;8.70;;;2.63;;
56830;SDS011;42713;42.676;23.352;2023-07-29T00:16:55;6.25;;;2.10;;
56830;SDS011;42713;42.676;23.352;2023-07-29T00:19:20;6.82;;;2.58;;
56830;SDS011;42713;42.676;23.352;2023-07-29T00:21:48;6.82;;;2.60;;
56830;SDS011;42713;42.676;23.352;2023-07-29T00:24:14;5.85;;;2.35;;
56830;SDS011;42713;42.676;23.352;2023-07-29T00:26:39;5.72;;;2.50;;
56830;SDS011;42713;42.676;23.352;2023-07-29T00:29:04;9.23;;;2.50;;
56830;SDS011;42713;42.676;23.352;2023-07-29T00:31:30;5.18;;;2.20;;
56830;SDS011;42713;42.676;23.352;2023-07-29T00:33:55;6.53;;;2.47;;
56830;SDS011;42713;42.676;23.352;2023-07-29T00:36:23;7.03;;;2.20;;
56830;SDS011;42713;42.676;23.352;2023-07-29T00:38:48;5.95;;;2.47;;
56830;SDS011;42713;42.676;23.352;2023-07-29T00:41:14;5.88;;;2.15;;
56830;SDS011;42713;42.676;23.352;2023-07-29T00:43:40;4.93;;;2.17;;
56830;SDS011;42713;42.676;23.352;2023-07-29T00:46:06;5.20;;;2.30;;
56830;SDS011;42713;42.676;23.352;2023-07-29T00:48:33;7.78;;;2.70;;
56830;SDS011;42713;42.676;23.352;2023-07-29T00:50:59;7.40;;;2.60;;
56830;SDS011;42713;42.676;23.352;2023-07-29T00:53:24;7.00;;;2.75;;
56830;SDS011;42713;42.676;23.352;2023-07-29T00:55:50;7.60;;;3.03;;
56830;SDS011;42713;42.676;23.352;2023-07-29T00:58:15;5.65;;;2.60;;
56830;SDS011;42713;42.676;23.352;2023-07-29T01:00:41;7.25;;;2.65;;
56830;SDS011;42713;42.676;23.352;2023-07-29T01:03:07;7.80;;;2.50;;
56830;SDS011;42713;42.676;23.352;2023-07-29T01:05:36;8.25;;;2.40;;
56830;SDS011;42713;42.676;23.352;2023-07-29T01:08:24;8.93;;;2.67;;
56830;SDS011;42713;42.676;23.352;2023-07-29T01:13:48;7.88;;;2.70;;
56830;SDS011;42713;42.676;23.352;2023-07-29T01:16:27;6.72;;;2.58;;
56830;SDS011;42713;42.676;23.352;2023-07-29T01:18:57;6.18;;;2.78;;
56830;SDS011;42713;42.676;23.352;2023-07-29T01:21:27;5.47;;;2.53;;
56830;SDS011;42713;42.676;23.352;2023-07-29T01:23:57;7.65;;;2.55;;
56830;SDS011;42713;42.676;23.352;2023-07-29T01:26:24;6.72;;;2.40;;
56830;SDS011;42713;42.676;23.352;2023-07-29T01:28:49;8.15;;;2.85;;
56830;SDS011;42713;42.676;23.352;2023-07-29T01:31:21;6.30;;;2.15;;
56830;SDS011;42713;42.676;23.352;2023-07-29T01:33:57;7.13;;;2.45;;
56830;SDS011;42713;42.676;23.352;2023-07-29T01:36:26;6.82;;;2.50;;
56830;SDS011;42713;42.676;23.352;2023-07-29T01:38:54;9.88;;;2.90;;
56830;SDS011;42713;42.676;23.352;2023-07-29T01:41:21;7.22;;;2.90;;
56830;SDS011;42713;42.676;23.352;2023-07-29T01:43:47;8.00;;;2.65;;
56830;SDS011;42713;42.676;23.352;2023-07-29T01:46:14;6.57;;;2.50;;
56830;SDS011;42713;42.676;23.352;2023-07-29T01:48:40;9.00;;;2.47;;
56830;SDS011;42713;42.676;23.352;2023-07-29T01:51:06;15.15;;;2.90;;
56830;SDS011;42713;42.676;23.352;2023-07-29T01:53:32;8.05;;;2.88;;
56830;SDS011;42713;42.676;23.352;2023-07-29T01:55:57;8.60;;;3.13;;
56830;SDS011;42713;42.676;23.352;2023-07-29T01:58:23;7.03;;;2.97;;
56830;SDS011;42713;42.676;23.352;2023-07-29T02:00:49;7.55;;;2.90;;
56830;SDS011;42713;42.676;23.352;2023-07-29T02:03:15;6.18;;;2.70;;
56830;SDS011;42713;42.676;23.352;2023-07-29T02:05:40;7.53;;;2.55;;
56830;SDS011;42713;42.676;23.352;2023-07-29T02:08:08;8.40;;;3.42;;
56830;SDS011;42713;42.676;23.352;2023-07-29T02:10:35;7.03;;;2.95;;
56830;SDS011;42713;42.676;23.352;2023-07-29T02:13:01;7.45;;;2.45;;
56830;SDS011;42713;42.676;23.352;2023-07-29T02:15:26;8.18;;;2.72;;
56830;SDS011;42713;42.676;23.352;2023-07-29T02:17:52;6.05;;;2.60;;
56830;SDS011;42713;42.676;23.352;2023-07-29T02:20:18;8.50;;;2.92;;
56830;SDS011;42713;42.676;23.352;2023-07-29T02:22:43;10.00;;;3.08;;
56830;SDS011;42713;42.676;23.352;2023-07-29T02:25:09;7.90;;;2.75;;
56830;SDS011;42713;42.676;23.352;2023-07-29T02:27:35;9.20;;;2.78;;
56830;SDS011;42713;42.676;23.352;2023-07-29T02:30:01;7.28;;;3.00;;
56830;SDS011;42713;42.676;23.352;2023-07-29T02:32:27;6.45;;;2.95;;
56830;SDS011;42713;42.676;23.352;2023-07-29T02:34:52;10.50;;;2.90;;
56830;SDS011;42713;42.676;23.352;2023-07-29T02:37:18;7.15;;;3.00;;
56830;SDS011;42713;42.676;23.352;2023-07-29T02:39:43;6.57;;;3.08;;
56830;SDS011;42713;42.676;23.352;2023-07-29T02:42:09;8.43;;;2.75;;
56830;SDS011;42713;42.676;23.352;2023-07-29T02:44:35;7.03;;;2.75;;
56830;SDS011;42713;42.676;23.352;2023-07-29T02:47:00;7.55;;;3.53;;
56830;SDS011;42713;42.676;23.352;2023-07-29T02:49:25;6.40;;;2.67;;
56830;SDS011;42713;42.676;23.352;2023-07-29T02:51:51;8.68;;;2.60;;
56830;SDS011;42713;42.676;23.352;2023-07-29T02:54:16;8.20;;;2.95;;
56830;SDS011;42713;42.676;23.352;2023-07-29T02:56:42;9.93;;;2.72;;
56830;SDS011;42713;42.676;23.352;2023-07-29T02:59:08;6.65;;;3.03;;
56830;SDS011;42713;42.676;23.352;2023-07-29T03:01:34;9.00;;;2.85;;
56830;SDS011;42713;42.676;23.352;2023-07-29T03:03:59;11.05;;;2.85;;
56830;SDS011;42713;42.676;23.352;2023-07-29T03:06:24;8.25;;;3.08;;
56830;SDS011;42713;42.676;23.352;2023-07-29T03:08:50;6.82;;;2.80;;
56830;SDS011;42713;42.676;23.352;2023-07-29T03:11:16;6.82;;;2.97;;
56830;SDS011;42713;42.676;23.352;2023-07-29T03:13:42;7.70;;;3.08;;
56830;SDS011;42713;42.676;23.352;2023-07-29T03:16:09;8.65;;;2.72;;
56830;SDS011;42713;42.676;23.352;2023-07-29T03:18:35;9.85;;;3.25;;
56830;SDS011;42713;42.676;23.352;2023-07-29T03:21:02;7.68;;;2.90;;
56830;SDS011;42713;42.676;23.352;2023-07-29T03:23:28;8.00;;;3.03;;
56830;SDS011;42713;42.676;23.352;2023-07-29T03:25:54;11.10;;;3.03;;
56830;SDS011;42713;42.676;23.352;2023-07-29T03:28:25;8.00;;;3.10;;
56830;SDS011;42713;42.676;23.352;2023-07-29T03:30:55;7.72;;;3.22;;
56830;SDS011;42713;42.676;23.352;2023-07-29T03:33:21;8.60;;;3.35;;
56830;SDS011;42713;42.676;23.352;2023-07-29T03:35:47;7.15;;;2.88;;
56830;SDS011;42713;42.676;23.352;2023-07-29T03:38:13;8.88;;;3.10;;
56830;SDS011;42713;42.676;23.352;2023-07-29T03:40:39;9.23;;;2.85;;
56830;SDS011;42713;42.676;23.352;2023-07-29T03:43:05;6.75;;;3.20;;
56830;SDS011;42713;42.676;23.352;2023-07-29T03:45:30;7.05;;;3.10;;
56830;SDS011;42713;42.676;23.352;2023-07-29T03:47:57;8.43;;;3.03;;
56830;SDS011;42713;42.676;23.352;2023-07-29T03:50:22;7.30;;;2.72;;
56830;SDS011;42713;42.676;23.352;2023-07-29T03:52:48;12.13;;;3.30;;
56830;SDS011;42713;42.676;23.352;2023-07-29T03:55:13;28.23;;;5.57;;
56830;SDS011;42713;42.676;23.352;2023-07-29T03:57:39;18.08;;;4.35;;
56830;SDS011;42713;42.676;23.352;2023-07-29T04:00:05;21.15;;;3.80;;
56830;SDS011;42713;42.676;23.352;2023-07-29T04:02:31;10.13;;;3.60;;
56830;SDS011;42713;42.676;23.352;2023-07-29T04:04:56;16.58;;;3.80;;
56830;SDS011;42713;42.676;23.352;2023-07-29T04:07:22;10.82;;;3.67;;
56830;SDS011;42713;42.676;23.352;2023-07-29T04:09:47;10.25;;;3.20;;
56830;SDS011;42713;42.676;23.352;2023-07-29T04:12:14;7.47;;;3.17;;
56830;SDS011;42713;42.676;23.352;2023-07-29T04:14:40;12.27;;;2.75;;
56830;SDS011;42713;42.676;23.352;2023-07-29T04:17:05;10.60;;;3.10;;
56830;SDS011;42713;42.676;23.352;2023-07-29T04:19:33;7.75;;;3.30;;
56830;SDS011;42713;42.676;23.352;2023-07-29T04:21:58;9.40;;;3.40;;
56830;SDS011;42713;42.676;23.352;2023-07-29T04:24:24;8.13;;;3.20;;
56830;SDS011;42713;42.676;23.352;2023-07-29T04:26:50;9.48;;;3.33;;
56830;SDS011;42713;42.676;23.352;2023-07-29T04:29:16;8.05;;;3.38;;
56830;SDS011;42713;42.676;23.352;2023-07-29T04:31:42;11.88;;;3.67;;
56830;SDS011;42713;42.676;23.352;2023-07-29T04:34:07;10.43;;;3.40;;
56830;SDS011;42713;42.676;23.352;2023-07-29T04:36:33;12.93;;;3.22;;
56830;SDS011;42713;42.676;23.352;2023-07-29T04:38:58;7.85;;;3.60;;
56830;SDS011;42713;42.676;23.352;2023-07-29T04:41:23;8.82;;;3.47;;
56830;SDS011;42713;42.676;23.352;2023-07-29T04:43:49;8.57;;;3.95;;
56830;SDS011;42713;42.676;23.352;2023-07-29T04:46:14;10.50;;;3.90;;
56830;SDS011;42713;42.676;23.352;2023-07-29T04:48:40;11.55;;;4.10;;
56830;SDS011;42713;42.676;23.352;2023-07-29T04:51:06;12.77;;;7.05;;
56830;SDS011;42713;42.676;23.352;2023-07-29T04:53:31;10.68;;;3.78;;
56830;SDS011;42713;42.676;23.352;2023-07-29T04:55:56;14.32;;;5.68;;
56830;SDS011;42713;42.676;23.352;2023-07-29T04:58:22;8.82;;;3.83;;
56830;SDS011;42713;42.676;23.352;2023-07-29T05:00:48;7.55;;;3.63;;
56830;SDS011;42713;42.676;23.352;2023-07-29T05:03:13;10.77;;;3.70;;
56830;SDS011;42713;42.676;23.352;2023-07-29T05:05:38;8.02;;;3.22;;
56830;SDS011;42713;42.676;23.352;2023-07-29T05:08:04;9.65;;;3.65;;
56830;SDS011;42713;42.676;23.352;2023-07-29T05:10:29;8.80;;;3.55;;
56830;SDS011;42713;42.676;23.352;2023-07-29T05:12:56;7.18;;;2.97;;
56830;SDS011;42713;42.676;23.352;2023-07-29T05:15:21;8.90;;;3.53;;
56830;SDS011;42713;42.676;23.352;2023-07-29T05:17:47;7.30;;;3.28;;
56830;SDS011;42713;42.676;23.352;2023-07-29T05:20:12;8.13;;;3.25;;
56830;SDS011;42713;42.676;23.352;2023-07-29T05:22:38;11.05;;;3.42;;
56830;SDS011;42713;42.676;23.352;2023-07-29T05:25:03;8.45;;;3.33;;
56830;SDS011;42713;42.676;23.352;2023-07-29T05:27:29;9.30;;;3.42;;
56830;SDS011;42713;42.676;23.352;2023-07-29T05:29:54;17.20;;;4.68;;
56830;SDS011;42713;42.676;23.352;2023-07-29T05:32:20;9.55;;;3.58;;
56830;SDS011;42713;42.676;23.352;2023-07-29T05:34:45;10.32;;;3.50;;
56830;SDS011;42713;42.676;23.352;2023-07-29T05:37:11;10.57;;;3.70;;
56830;SDS011;42713;42.676;23.352;2023-07-29T05:39:36;9.80;;;3.45;;
56830;SDS011;42713;42.676;23.352;2023-07-29T05:42:02;15.18;;;4.38;;
56830;SDS011;42713;42.676;23.352;2023-07-29T05:44:28;8.40;;;3.45;;
56830;SDS011;42713;42.676;23.352;2023-07-29T05:46:55;11.50;;;3.75;;
56830;SDS011;42713;42.676;23.352;2023-07-29T05:49:21;8.88;;;3.67;;
56830;SDS011;42713;42.676;23.352;2023-07-29T05:51:47;10.23;;;3.40;;
56830;SDS011;42713;42.676;23.352;2023-07-29T05:54:12;11.52;;;3.13;;
56830;SDS011;42713;42.676;23.352;2023-07-29T05:56:37;8.45;;;3.15;;
56830;SDS011;42713;42.676;23.352;2023-07-29T05:59:03;10.48;;;3.55;;
56830;SDS011;42713;42.676;23.352;2023-07-29T06:01:29;10.50;;;2.97;;
56830;SDS011;42713;42.676;23.352;2023-07-29T06:03:54;10.52;;;3.63;;
56830;SDS011;42713;42.676;23.352;2023-07-29T06:06:19;11.07;;;3.97;;
56830;SDS011;42713;42.676;23.352;2023-07-29T06:08:45;9.63;;;3.88;;
56830;SDS011;42713;42.676;23.352;2023-07-29T06:11:10;7.55;;;3.38;;
56830;SDS011;42713;42.676;23.352;2023-07-29T06:13:36;9.10;;;2.97;;
56830;SDS011;42713;42.676;23.352;2023-07-29T06:16:01;9.25;;;3.13;;
56830;SDS011;42713;42.676;23.352;2023-07-29T06:18:27;11.32;;;3.60;;
56830;SDS011;42713;42.676;23.352;2023-07-29T06:20:53;8.13;;;3.40;;
56830;SDS011;42713;42.676;23.352;2023-07-29T06:23:18;8.48;;;3.38;;
56830;SDS011;42713;42.676;23.352;2023-07-29T06:25:44;9.60;;;3.63;;
56830;SDS011;42713;42.676;23.352;2023-07-29T06:28:09;7.78;;;3.30;;
56830;SDS011;42713;42.676;23.352;2023-07-29T06:30:35;8.95;;;3.25;;
56830;SDS011;42713;42.676;23.352;2023-07-29T06:33:00;10.45;;;3.13;;
56830;SDS011;42713;42.676;23.352;2023-07-29T06:35:28;8.65;;;3.28;;
56830;SDS011;42713;42.676;23.352;2023-07-29T06:37:53;9.35;;;3.47;;
56830;SDS011;42713;42.676;23.352;2023-07-29T06:49:35;9.93;;;3.47;;
56830;SDS011;42713;42.676;23.352;2023-07-29T06:52:07;8.68;;;3.60;;
56830;SDS011;42713;42.676;23.352;2023-07-29T06:54:32;10.65;;;3.72;;
56830;SDS011;42713;42.676;23.352;2023-07-29T06:56:58;9.18;;;3.53;;
56830;SDS011;42713;42.676;23.352;2023-07-29T06:59:23;10.38;;;3.70;;
56830;SDS011;42713;42.676;23.352;2023-07-29T07:01:49;9.15;;;3.75;;
56830;SDS011;42713;42.676;23.352;2023-07-29T07:04:15;15.38;;;3.65;;
56830;SDS011;42713;42.676;23.352;2023-07-29T07:06:40;11.88;;;3.83;;
56830;SDS011;42713;42.676;23.352;2023-07-29T07:09:06;10.18;;;4.13;;
56830;SDS011;42713;42.676;23.352;2023-07-29T07:11:31;10.70;;;3.85;;
56830;SDS011;42713;42.676;23.352;2023-07-29T07:13:57;11.95;;;3.75;;
56830;SDS011;42713;42.676;23.352;2023-07-29T07:16:25;12.05;;;3.95;;
56830;SDS011;42713;42.676;23.352;2023-07-29T07:18:50;11.70;;;3.95;;
56830;SDS011;42713;42.676;23.352;2023-07-29T07:21:16;13.93;;;3.92;;
56830;SDS011;42713;42.676;23.352;2023-07-29T07:23:43;11.18;;;3.88;;
56830;SDS011;42713;42.676;23.352;2023-07-29T07:26:08;10.73;;;3.70;;
56830;SDS011;42713;42.676;23.352;2023-07-29T07:28:34;10.02;;;3.83;;
56830;SDS011;42713;42.676;23.352;2023-07-29T07:30:59;9.77;;;3.90;;
56830;SDS011;42713;42.676;23.352;2023-07-29T07:33:25;10.52;;;3.58;;
56830;SDS011;42713;42.676;23.352;2023-07-29T07:35:50;11.27;;;3.75;;
56830;SDS011;42713;42.676;23.352;2023-07-29T07:38:15;14.13;;;3.83;;
56830;SDS011;42713;42.676;23.352;2023-07-29T07:40:41;10.02;;;3.70;;
56830;SDS011;42713;42.676;23.352;2023-07-29T07:43:06;13.65;;;3.90;;
56830;SDS011;42713;42.676;23.352;2023-07-29T07:45:32;10.10;;;3.80;;
56830;SDS011;42713;42.676;23.352;2023-07-29T07:47:58;15.43;;;3.85;;
56830;SDS011;42713;42.676;23.352;2023-07-29T07:50:24;10.48;;;3.72;;
56830;SDS011;42713;42.676;23.352;2023-07-29T07:52:49;13.13;;;3.83;;
56830;SDS011;42713;42.676;23.352;2023-07-29T07:55:15;10.05;;;3.75;;
56830;SDS011;42713;42.676;23.352;2023-07-29T07:57:40;12.55;;;3.63;;
56830;SDS011;42713;42.676;23.352;2023-07-29T08:00:06;10.43;;;3.80;;
56830;SDS011;42713;42.676;23.352;2023-07-29T08:02:32;14.00;;;3.75;;
56830;SDS011;42713;42.676;23.352;2023-07-29T08:04:57;12.63;;;3.67;;
56830;SDS011;42713;42.676;23.352;2023-07-29T08:07:23;14.77;;;3.75;;
56830;SDS011;42713;42.676;23.352;2023-07-29T08:09:48;10.15;;;3.70;;
56830;SDS011;42713;42.676;23.352;2023-07-29T08:12:14;9.85;;;3.28;;
56830;SDS011;42713;42.676;23.352;2023-07-29T08:14:41;11.73;;;3.60;;
56830;SDS011;42713;42.676;23.352;2023-07-29T08:17:07;9.10;;;3.35;;
56830;SDS011;42713;42.676;23.352;2023-07-29T08:19:32;8.88;;;3.42;;
56830;SDS011;42713;42.676;23.352;2023-07-29T08:22:01;9.65;;;3.40;;
56830;SDS011;42713;42.676;23.352;2023-07-29T08:24:28;9.15;;;3.40;;
56830;SDS011;42713;42.676;23.352;2023-07-29T08:26:53;12.82;;;3.08;;
56830;SDS011;42713;42.676;23.352;2023-07-29T08:29:19;11.98;;;3.55;;
56830;SDS011;42713;42.676;23.352;2023-07-29T08:31:44;7.05;;;2.90;;
56830;SDS011;42713;42.676;23.352;2023-07-29T08:34:09;10.18;;;2.88;;
56830;SDS011;42713;42.676;23.352;2023-07-29T08:36:35;9.18;;;3.40;;
56830;SDS011;42713;42.676;23.352;2023-07-29T08:39:00;8.68;;;2.97;;
56830;SDS011;42713;42.676;23.352;2023-07-29T08:41:27;7.28;;;2.72;;
56830;SDS011;42713;42.676;23.352;2023-07-29T08:46:49;7.93;;;2.78;;
56830;SDS011;42713;42.676;23.352;2023-07-29T08:49:15;11.05;;;3.08;;
56830;SDS011;42713;42.676;23.352;2023-07-29T08:51:46;9.43;;;3.05;;
56830;SDS011;42713;42.676;23.352;2023-07-29T08:54:13;9.68;;;3.00;;
56830;SDS011;42713;42.676;23.352;2023-07-29T08:56:40;6.32;;;2.50;;
56830;SDS011;42713;42.676;23.352;2023-07-29T08:59:06;8.43;;;2.40;;
56830;SDS011;42713;42.676;23.352;2023-07-29T09:01:33;11.82;;;2.67;;
56830;SDS011;42713;42.676;23.352;2023-07-29T09:03:58;10.68;;;2.55;;
56830;SDS011;42713;42.676;23.352;2023-07-29T09:06:24;22.60;;;3.28;;
56830;SDS011;42713;42.676;23.352;2023-07-29T09:08:53;9.35;;;2.25;;
56830;SDS011;42713;42.676;23.352;2023-07-29T09:11:21;8.25;;;2.38;;
56830;SDS011;42713;42.676;23.352;2023-07-29T09:13:47;7.65;;;1.92;;
56830;SDS011;42713;42.676;23.352;2023-07-29T09:16:13;6.13;;;1.92;;
56830;SDS011;42713;42.676;23.352;2023-07-29T09:18:39;8.52;;;2.10;;
56830;SDS011;42713;42.676;23.352;2023-07-29T09:21:06;5.50;;;1.77;;
56830;SDS011;42713;42.676;23.352;2023-07-29T09:23:41;8.20;;;1.98;;
56830;SDS011;42713;42.676;23.352;2023-07-29T09:26:07;5.30;;;1.95;;
56830;SDS011;42713;42.676;23.352;2023-07-29T09:28:34;5.32;;;2.03;;
56830;SDS011;42713;42.676;23.352;2023-07-29T09:31:00;7.40;;;1.90;;
56830;SDS011;42713;42.676;23.352;2023-07-29T09:33:27;4.10;;;1.52;;
56830;SDS011;42713;42.676;23.352;2023-07-29T09:35:52;6.32;;;1.77;;
56830;SDS011;42713;42.676;23.352;2023-07-29T09:38:18;4.97;;;1.60;;
56830;SDS011;42713;42.676;23.352;2023-07-29T09:40:50;4.88;;;1.63;;
56830;SDS011;42713;42.676;23.352;2023-07-29T09:43:20;4.95;;;1.50;;
56830;SDS011;42713;42.676;23.352;2023-07-29T09:45:51;3.65;;;1.50;;
56830;SDS011;42713;42.676;23.352;2023-07-29T09:48:19;4.78;;;1.70;;
56830;SDS011;42713;42.676;23.352;2023-07-29T09:50:47;4.50;;;1.23;;
56830;SDS011;42713;42.676;23.352;2023-07-29T09:53:13;6.07;;;1.67;;
56830;SDS011;42713;42.676;23.352;2023-07-29T09:55:39;4.47;;;1.60;;
56830;SDS011;42713;42.676;23.352;2023-07-29T09:58:04;4.55;;;1.45;;
56830;SDS011;42713;42.676;23.352;2023-07-29T10:00:33;2.92;;;1.30;;
56830;SDS011;42713;42.676;23.352;2023-07-29T10:02:59;5.30;;;1.70;;
56830;SDS011;42713;42.676;23.352;2023-07-29T10:05:28;3.22;;;1.55;;
56830;SDS011;42713;42.676;23.352;2023-07-29T10:07:54;2.97;;;1.27;;
56830;SDS011;42713;42.676;23.352;2023-07-29T10:10:21;2.88;;;1.30;;
56830;SDS011;42713;42.676;23.352;2023-07-29T10:12:46;3.60;;;1.20;;
56830;SDS011;42713;42.676;23.352;2023-07-29T10:15:12;4.65;;;1.27;;
56830;SDS011;42713;42.676;23.352;2023-07-29T10:17:39;6.72;;;1.20;;
56830;SDS011;42713;42.676;23.352;2023-07-29T10:20:05;4.18;;;1.35;;
56830;SDS011;42713;42.676;23.352;2023-07-29T10:22:33;4.05;;;1.40;;
56830;SDS011;42713;42.676;23.352;2023-07-29T10:25:03;2.37;;;1.10;;
56830;SDS011;42713;42.676;23.352;2023-07-29T10:27:37;3.88;;;1.40;;
56830;SDS011;42713;42.676;23.352;2023-07-29T10:30:08;3.30;;;1.15;;
56830;SDS011;42713;42.676;23.352;2023-07-29T10:32:37;2.78;;;1.20;;
56830;SDS011;42713;42.676;23.352;2023-07-29T10:35:03;3.65;;;1.15;;
56830;SDS011;42713;42.676;23.352;2023-07-29T10:37:29;3.60;;;1.55;;
56830;SDS011;42713;42.676;23.352;2023-07-29T10:39:55;3.80;;;1.38;;
56830;SDS011;42713;42.676;23.352;2023-07-29T10:42:21;4.13;;;1.35;;
56830;SDS011;42713;42.676;23.352;2023-07-29T10:44:48;4.28;;;1.50;;
56830;SDS011;42713;42.676;23.352;2023-07-29T10:49:41;5.75;;;1.35;;
56830;SDS011;42713;42.676;23.352;2023-07-29T10:52:12;2.60;;;1.10;;
56830;SDS011;42713;42.676;23.352;2023-07-29T10:54:42;4.18;;;1.20;;
56830;SDS011;42713;42.676;23.352;2023-07-29T10:57:15;3.75;;;1.30;;
56830;SDS011;42713;42.676;23.352;2023-07-29T10:59:41;3.20;;;1.10;;
56830;SDS011;42713;42.676;23.352;2023-07-29T11:02:19;5.57;;;1.10;;
56830;SDS011;42713;42.676;23.352;2023-07-29T11:04:51;3.92;;;1.40;;
56830;SDS011;42713;42.676;23.352;2023-07-29T11:09:42;2.53;;;1.10;;
56830;SDS011;42713;42.676;23.352;2023-07-29T11:17:37;4.40;;;1.25;;
56830;SDS011;42713;42.676;23.352;2023-07-29T11:20:04;2.55;;;1.10;;
56830;SDS011;42713;42.676;23.352;2023-07-29T11:22:32;2.38;;;0.98;;
56830;SDS011;42713;42.676;23.352;2023-07-29T11:24:58;4.78;;;1.13;;
56830;SDS011;42713;42.676;23.352;2023-07-29T11:27:23;3.97;;;0.82;;
56830;SDS011;42713;42.676;23.352;2023-07-29T11:29:49;1.58;;;0.77;;
56830;SDS011;42713;42.676;23.352;2023-07-29T11:32:15;1.45;;;0.85;;
56830;SDS011;42713;42.676;23.352;2023-07-29T11:34:41;3.10;;;1.08;;
56830;SDS011;42713;42.676;23.352;2023-07-29T11:37:08;3.05;;;1.27;;
56830;SDS011;42713;42.676;23.352;2023-07-29T11:39:39;2.40;;;1.08;;
56830;SDS011;42713;42.676;23.352;2023-07-29T11:42:12;5.25;;;1.10;;
56830;SDS011;42713;42.676;23.352;2023-07-29T11:44:39;2.85;;;0.80;;
56830;SDS011;42713;42.676;23.352;2023-07-29T11:47:08;3.55;;;1.10;;
56830;SDS011;42713;42.676;23.352;2023-07-29T11:49:34;2.13;;;1.00;;
56830;SDS011;42713;42.676;23.352;2023-07-29T11:52:01;3.78;;;1.10;;
56830;SDS011;42713;42.676;23.352;2023-07-29T11:54:28;8.77;;;5.45;;
56830;SDS011;42713;42.676;23.352;2023-07-29T11:56:54;4.53;;;1.48;;
56830;SDS011;42713;42.676;23.352;2023-07-29T11:59:21;3.67;;;1.40;;
56830;SDS011;42713;42.676;23.352;2023-07-29T12:01:47;5.32;;;1.20;;
56830;SDS011;42713;42.676;23.352;2023-07-29T12:04:13;5.13;;;1.10;;
56830;SDS011;42713;42.676;23.352;2023-07-29T12:06:39;5.75;;;1.80;;
56830;SDS011;42713;42.676;23.352;2023-07-29T12:09:06;5.35;;;2.00;;
56830;SDS011;42713;42.676;23.352;2023-07-29T12:11:32;6.15;;;1.35;;
56830;SDS011;42713;42.676;23.352;2023-07-29T12:13:59;3.60;;;1.35;;
56830;SDS011;42713;42.676;23.352;2023-07-29T12:16:25;4.28;;;1.20;;
56830;SDS011;42713;42.676;23.352;2023-07-29T12:18:50;2.17;;;1.05;;
56830;SDS011;42713;42.676;23.352;2023-07-29T12:21:19;4.40;;;1.27;;
56830;SDS011;42713;42.676;23.352;2023-07-29T12:23:45;4.22;;;1.13;;
56830;SDS011;42713;42.676;23.352;2023-07-29T12:26:11;3.97;;;1.50;;
56830;SDS011;42713;42.676;23.352;2023-07-29T12:28:36;9.00;;;1.30;;
56830;SDS011;42713;42.676;23.352;2023-07-29T12:31:06;3.78;;;1.40;;
56830;SDS011;42713;42.676;23.352;2023-07-29T12:33:38;2.92;;;1.25;;
56830;SDS011;42713;42.676;23.352;2023-07-29T12:36:07;3.80;;;1.40;;
56830;SDS011;42713;42.676;23.352;2023-07-29T12:38:33;3.85;;;1.35;;
56830;SDS011;42713;42.676;23.352;2023-07-29T12:41:05;3.72;;;1.40;;
56830;SDS011;42713;42.676;23.352;2023-07-29T12:43:37;5.45;;;1.70;;
56830;SDS011;42713;42.676;23.352;2023-07-29T12:46:29;4.13;;;1.60;;
56830;SDS011;42713;42.676;23.352;2023-07-29T12:48:55;7.00;;;1.42;;
56830;SDS011;42713;42.676;23.352;2023-07-29T12:51:23;6.20;;;1.35;;
56830;SDS011;42713;42.676;23.352;2023-07-29T12:53:50;3.45;;;1.35;;
56830;SDS011;42713;42.676;23.352;2023-07-29T12:56:16;3.33;;;1.38;;
56830;SDS011;42713;42.676;23.352;2023-07-29T12:58:41;3.42;;;1.30;;
56830;SDS011;42713;42.676;23.352;2023-07-29T13:01:10;3.78;;;1.48;;
56830;SDS011;42713;42.676;23.352;2023-07-29T13:03:46;3.58;;;1.38;;
56830;SDS011;42713;42.676;23.352;2023-07-29T13:06:25;5.30;;;1.50;;
56830;SDS011;42713;42.676;23.352;2023-07-29T13:08:51;4.82;;;1.60;;
56830;SDS011;42713;42.676;23.352;2023-07-29T13:11:31;2.92;;;1.48;;
56830;SDS011;42713;42.676;23.352;2023-07-29T13:13:59;3.75;;;1.30;;
56830;SDS011;42713;42.676;23.352;2023-07-29T13:16:26;3.42;;;1.20;;
56830;SDS011;42713;42.676;23.352;2023-07-29T13:18:55;4.47;;;1.50;;
56830;SDS011;42713;42.676;23.352;2023-07-29T13:21:34;2.88;;;1.33;;
56830;SDS011;42713;42.676;23.352;2023-07-29T13:23:59;3.75;;;1.50;;
56830;SDS011;42713;42.676;23.352;2023-07-29T13:26:25;7.20;;;1.58;;
56830;SDS011;42713;42.676;23.352;2023-07-29T13:28:52;3.50;;;1.40;;
56830;SDS011;42713;42.676;23.352;2023-07-29T13:31:19;2.53;;;1.20;;
56830;SDS011;42713;42.676;23.352;2023-07-29T13:33:53;4.82;;;1.38;;
56830;SDS011;42713;42.676;23.352;2023-07-29T13:36:33;3.85;;;1.30;;
56830;SDS011;42713;42.676;23.352;2023-07-29T13:38:58;4.18;;;1.50;;
56830;SDS011;42713;42.676;23.352;2023-07-29T13:41:26;6.30;;;1.58;;
56830;SDS011;42713;42.676;23.352;2023-07-29T13:43:51;5.30;;;1.40;;
56830;SDS011;42713;42.676;23.352;2023-07-29T13:46:17;4.13;;;1.42;;
56830;SDS011;42713;42.676;23.352;2023-07-29T13:48:46;4.03;;;1.33;;
56830;SDS011;42713;42.676;23.352;2023-07-29T13:51:11;5.50;;;1.30;;
56830;SDS011;42713;42.676;23.352;2023-07-29T13:53:37;5.38;;;1.45;;
56830;SDS011;42713;42.676;23.352;2023-07-29T13:56:03;3.60;;;1.40;;
56830;SDS011;42713;42.676;23.352;2023-07-29T13:58:29;3.25;;;1.30;;
56830;SDS011;42713;42.676;23.352;2023-07-29T14:00:55;3.35;;;1.23;;
56830;SDS011;42713;42.676;23.352;2023-07-29T14:03:20;10.27;;;1.55;;
56830;SDS011;42713;42.676;23.352;2023-07-29T14:05:46;3.33;;;1.30;;
56830;SDS011;42713;42.676;23.352;2023-07-29T14:08:12;5.18;;;1.73;;
56830;SDS011;42713;42.676;23.352;2023-07-29T14:10:37;7.70;;;1.50;;
56830;SDS011;42713;42.676;23.352;2023-07-29T14:13:02;6.20;;;2.47;;
56830;SDS011;42713;42.676;23.352;2023-07-29T14:15:28;5.93;;;1.60;;
56830;SDS011;42713;42.676;23.352;2023-07-29T14:17:53;4.65;;;1.77;;
56830;SDS011;42713;42.676;23.352;2023-07-29T14:20:19;4.63;;;1.50;;
56830;SDS011;42713;42.676;23.352;2023-07-29T14:22:45;7.20;;;1.75;;
56830;SDS011;42713;42.676;23.352;2023-07-29T14:25:10;5.38;;;1.75;;
56830;SDS011;42713;42.676;23.352;2023-07-29T14:27:36;3.17;;;1.33;;
56830;SDS011;42713;42.676;23.352;2023-07-29T14:30:04;4.35;;;1.38;;
56830;SDS011;42713;42.676;23.352;2023-07-29T14:32:30;3.58;;;1.50;;
56830;SDS011;42713;42.676;23.352;2023-07-29T14:34:55;6.35;;;1.70;;
56830;SDS011;42713;42.676;23.352;2023-07-29T14:37:21;5.93;;;1.52;;
56830;SDS011;42713;42.676;23.352;2023-07-29T14:39:46;4.55;;;1.50;;
56830;SDS011;42713;42.676;23.352;2023-07-29T14:42:12;7.38;;;1.55;;
56830;SDS011;42713;42.676;23.352;2023-07-29T14:44:40;2.92;;;1.17;;
56830;SDS011;42713;42.676;23.352;2023-07-29T14:47:07;4.82;;;1.38;;
56830;SDS011;42713;42.676;23.352;2023-07-29T14:49:33;4.07;;;1.63;;
56830;SDS011;42713;42.676;23.352;2023-07-29T14:51:58;3.53;;;1.40;;
56830;SDS011;42713;42.676;23.352;2023-07-29T14:54:24;5.28;;;1.60;;